Airfield :
LOGIN :

Register | Disclaimer

   EN    FR    IT 

 










Legend :    VFR   Marginal VFR   IFR   Intensive IFR   Very Intensive IFR
Visi :
Ceiling :
>= 8 km
>= 3000ft
5 to 8 km
1000 to 3000 ft
1500m to 5 km
500 to 1000 ft
800 to 1500m
200 to 500 ft
< 800m
< 200 ft
Symbols :   Thunderstorms  Fog  Heavy snow  Heavy precipitations  Wind > 20 kt
SIGMETs :     Misc.  Thunderstorms  Icing  Turbulence  Mountain Waves  Volcanic Ashes






- Airport Elevation : 302 ft


LFPM - Melun Villaroche

CURRENT METAR :
  • 141100Z AUTO 26010KT 210V300 9999 BKN049/// BKN098/// OVC140/// ///TCU 24/09 Q1017

EXPIRED METARs :
  • 141030Z AUTO 28007KT 210V330 9999 ///TCU 24/10 Q1017
  • 141000Z AUTO 27008KT 220V300 CAVOK 23/10 Q1017
  • 140930Z AUTO 29006KT 250V310 CAVOK 22/10 Q1018
  • 140900Z AUTO 26006KT 220V300 CAVOK 22/09 Q1018
  • 140830Z AUTO 29005KT 240V330 CAVOK 21/10 Q1018

Expired Forecast.
ATIS : +33 1 64 14 28 44



MET'MAP, your aeronautical weather chart ! - Copyright ORBIFLY December 2007 - Disclaimer

ORBIFLY MET'MAP TEAM :

Programming & Development : Alexandra Zaïnal
Concept & original design : Baudouin d'Aumeries
Assistance for programming : Marc-Olivier Méhu
Technical & hardware support : Manuel Goepfert

Contact : metmap@orbifly.com




SOURCES & CREDITS :

   NOAA